sensor_id;sensor_type;location;lat;lon;timestamp;pressure;altitude;pressure_sealevel;temperature;humidity
31285;BME280;56605;51.516;6.742;2023-01-29T00:00:29;102876.69;;;-3.62;100.00
31285;BME280;56605;51.516;6.742;2023-01-29T00:02:55;102876.13;;;-3.24;100.00
31285;BME280;56605;51.516;6.742;2023-01-29T00:05:20;102872.22;;;-3.00;100.00
31285;BME280;56605;51.516;6.742;2023-01-29T00:07:45;102876.75;;;-3.10;100.00
31285;BME280;56605;51.516;6.742;2023-01-29T00:10:10;102877.06;;;-3.30;100.00
31285;BME280;56605;51.516;6.742;2023-01-29T00:12:36;102866.44;;;-3.19;100.00
31285;BME280;56605;51.516;6.742;2023-01-29T00:15:01;102867.88;;;-2.99;100.00
31285;BME280;56605;51.516;6.742;2023-01-29T00:17:26;102867.75;;;-2.93;100.00
31285;BME280;56605;51.516;6.742;2023-01-29T00:19:52;102863.22;;;-2.82;100.00
31285;BME280;56605;51.516;6.742;2023-01-29T00:22:17;102854.41;;;-2.77;100.00
31285;BME280;56605;51.516;6.742;2023-01-29T00:24:43;102852.72;;;-2.78;100.00
31285;BME280;56605;51.516;6.742;2023-01-29T00:27:08;102850.16;;;-2.82;100.00
31285;BME280;56605;51.516;6.742;2023-01-29T00:29:33;102848.28;;;-2.76;100.00
31285;BME280;56605;51.516;6.742;2023-01-29T00:31:59;102844.03;;;-2.82;100.00
31285;BME280;56605;51.516;6.742;2023-01-29T00:34:24;102846.56;;;-2.77;100.00
31285;BME280;56605;51.516;6.742;2023-01-29T00:36:49;102847.50;;;-2.80;100.00
31285;BME280;56605;51.516;6.742;2023-01-29T00:39:15;102838.81;;;-2.82;100.00
31285;BME280;56605;51.516;6.742;2023-01-29T00:41:40;102847.41;;;-2.75;100.00
31285;BME280;56605;51.516;6.742;2023-01-29T00:44:24;102853.56;;;-2.80;100.00
31285;BME280;56605;51.516;6.742;2023-01-29T00:47:08;102850.88;;;-2.75;100.00
31285;BME280;56605;51.516;6.742;2023-01-29T00:49:52;102854.25;;;-2.66;100.00
31285;BME280;56605;51.516;6.742;2023-01-29T00:52:17;102850.72;;;-2.65;100.00
31285;BME280;56605;51.516;6.742;2023-01-29T00:54:52;102852.47;;;-2.66;100.00
31285;BME280;56605;51.516;6.742;2023-01-29T00:57:18;102851.56;;;-2.65;100.00
31285;BME280;56605;51.516;6.742;2023-01-29T00:59:43;102854.19;;;-2.65;100.00
31285;BME280;56605;51.516;6.742;2023-01-29T01:02:09;102846.44;;;-2.70;100.00
31285;BME280;56605;51.516;6.742;2023-01-29T01:04:53;102850.81;;;-2.70;100.00
31285;BME280;56605;51.516;6.742;2023-01-29T01:07:19;102849.13;;;-2.73;100.00
31285;BME280;56605;51.516;6.742;2023-01-29T01:09:44;102851.69;;;-2.71;100.00
31285;BME280;56605;51.516;6.742;2023-01-29T01:12:28;102845.53;;;-2.69;100.00
31285;BME280;56605;51.516;6.742;2023-01-29T01:14:53;102847.31;;;-2.71;100.00
31285;BME280;56605;51.516;6.742;2023-01-29T01:17:19;102834.22;;;-2.69;100.00
31285;BME280;56605;51.516;6.742;2023-01-29T01:19:44;102831.63;;;-2.71;100.00
31285;BME280;56605;51.516;6.742;2023-01-29T01:22:09;102822.78;;;-2.65;100.00
31285;BME280;56605;51.516;6.742;2023-01-29T01:24:35;102813.22;;;-2.64;100.00
31285;BME280;56605;51.516;6.742;2023-01-29T01:27:01;102810.66;;;-2.68;100.00
31285;BME280;56605;51.516;6.742;2023-01-29T01:29:26;102812.63;;;-2.79;100.00
31285;BME280;56605;51.516;6.742;2023-01-29T01:31:52;102812.16;;;-3.03;100.00
31285;BME280;56605;51.516;6.742;2023-01-29T01:34:18;102809.66;;;-3.09;100.00
31285;BME280;56605;51.516;6.742;2023-01-29T01:36:43;102807.81;;;-3.02;100.00
31285;BME280;56605;51.516;6.742;2023-01-29T01:39:08;102812.84;;;-2.91;100.00
31285;BME280;56605;51.516;6.742;2023-01-29T01:41:34;102816.09;;;-2.78;100.00
31285;BME280;56605;51.516;6.742;2023-01-29T01:44:01;102821.16;;;-2.71;100.00
31285;BME280;56605;51.516;6.742;2023-01-29T01:46:34;102813.13;;;-2.60;100.00
31285;BME280;56605;51.516;6.742;2023-01-29T01:49:13;102822.59;;;-2.54;100.00
31285;BME280;56605;51.516;6.742;2023-01-29T01:51:43;102828.53;;;-2.46;100.00
31285;BME280;56605;51.516;6.742;2023-01-29T01:54:20;102828.41;;;-2.39;100.00
31285;BME280;56605;51.516;6.742;2023-01-29T01:56:51;102826.59;;;-2.36;100.00
31285;BME280;56605;51.516;6.742;2023-01-29T01:59:20;102821.63;;;-2.50;100.00
31285;BME280;56605;51.516;6.742;2023-01-29T02:07:22;102824.94;;;-2.40;100.00
31285;BME280;56605;51.516;6.742;2023-01-29T02:10:13;102829.91;;;-2.27;100.00
31285;BME280;56605;51.516;6.742;2023-01-29T02:12:39;102827.28;;;-2.26;100.00
31285;BME280;56605;51.516;6.742;2023-01-29T02:15:05;102829.81;;;-2.23;100.00
31285;BME280;56605;51.516;6.742;2023-01-29T02:17:31;102827.25;;;-2.24;100.00
31285;BME280;56605;51.516;6.742;2023-01-29T02:20:27;102828.88;;;-2.20;100.00
31285;BME280;56605;51.516;6.742;2023-01-29T02:28:11;102825.47;;;-2.22;100.00
31285;BME280;56605;51.516;6.742;2023-01-29T02:33:45;102837.66;;;-2.21;100.00
31285;BME280;56605;51.516;6.742;2023-01-29T02:38:49;102828.41;;;-2.39;100.00
31285;BME280;56605;51.516;6.742;2023-01-29T02:41:22;102828.56;;;-2.47;100.00
31285;BME280;56605;51.516;6.742;2023-01-29T02:43:57;102823.50;;;-2.55;100.00
31285;BME280;56605;51.516;6.742;2023-01-29T02:46:38;102816.53;;;-2.56;100.00
31285;BME280;56605;51.516;6.742;2023-01-29T02:49:10;102814.84;;;-2.59;100.00
31285;BME280;56605;51.516;6.742;2023-01-29T02:52:02;102823.59;;;-2.60;100.00
31285;BME280;56605;51.516;6.742;2023-01-29T02:54:52;102821.00;;;-2.61;100.00
31285;BME280;56605;51.516;6.742;2023-01-29T02:57:22;102831.34;;;-2.55;100.00
31285;BME280;56605;51.516;6.742;2023-01-29T02:59:53;102832.34;;;-2.61;100.00
31285;BME280;56605;51.516;6.742;2023-01-29T03:02:26;102823.56;;;-2.58;100.00
31285;BME280;56605;51.516;6.742;2023-01-29T03:04:59;102833.19;;;-2.62;100.00
31285;BME280;56605;51.516;6.742;2023-01-29T03:07:30;102831.41;;;-2.58;100.00
31285;BME280;56605;51.516;6.742;2023-01-29T03:12:57;102829.69;;;-2.59;100.00
31285;BME280;56605;51.516;6.742;2023-01-29T03:15:30;102830.53;;;-2.59;100.00
31285;BME280;56605;51.516;6.742;2023-01-29T03:18:09;102835.75;;;-2.59;100.00
31285;BME280;56605;51.516;6.742;2023-01-29T03:20:40;102840.97;;;-2.57;100.00
31285;BME280;56605;51.516;6.742;2023-01-29T03:23:24;102837.53;;;-2.59;100.00
31285;BME280;56605;51.516;6.742;2023-01-29T03:26:02;102841.25;;;-2.71;100.00
31285;BME280;56605;51.516;6.742;2023-01-29T03:28:47;102839.47;;;-2.71;100.00
31285;BME280;56605;51.516;6.742;2023-01-29T03:31:32;102836.91;;;-2.74;100.00
31285;BME280;56605;51.516;6.742;2023-01-29T03:34:21;102833.34;;;-2.68;100.00
31285;BME280;56605;51.516;6.742;2023-01-29T03:36:57;102836.06;;;-2.74;100.00
31285;BME280;56605;51.516;6.742;2023-01-29T03:39:27;102838.69;;;-2.74;100.00
31285;BME280;56605;51.516;6.742;2023-01-29T03:42:15;102831.63;;;-2.71;100.00
31285;BME280;56605;51.516;6.742;2023-01-29T03:52:50;102831.31;;;-2.53;100.00
31285;BME280;56605;51.516;6.742;2023-01-29T03:55:54;102834.50;;;-2.37;100.00
31285;BME280;56605;51.516;6.742;2023-01-29T03:58:38;102827.41;;;-2.34;100.00
31285;BME280;56605;51.516;6.742;2023-01-29T04:01:15;102829.13;;;-2.31;100.00
31285;BME280;56605;51.516;6.742;2023-01-29T04:06:17;102815.09;;;-2.27;100.00
31285;BME280;56605;51.516;6.742;2023-01-29T04:08:50;102811.38;;;-2.17;100.00
31285;BME280;56605;51.516;6.742;2023-01-29T04:11:19;102806.06;;;-2.12;100.00
31285;BME280;56605;51.516;6.742;2023-01-29T04:13:46;102798.19;;;-2.12;100.00
31285;BME280;56605;51.516;6.742;2023-01-29T04:16:17;102791.19;;;-2.11;100.00
31285;BME280;56605;51.516;6.742;2023-01-29T04:18:46;102791.13;;;-2.08;100.00
31285;BME280;56605;51.516;6.742;2023-01-29T04:21:13;102786.72;;;-2.06;100.00
31285;BME280;56605;51.516;6.742;2023-01-29T04:23:38;102776.25;;;-2.06;100.00
31285;BME280;56605;51.516;6.742;2023-01-29T04:37:31;102798.53;;;-1.88;100.00
31285;BME280;56605;51.516;6.742;2023-01-29T04:40:16;102797.53;;;-1.82;100.00
31285;BME280;56605;51.516;6.742;2023-01-29T04:42:53;102790.53;;;-1.82;100.00
31285;BME280;56605;51.516;6.742;2023-01-29T04:48:23;102784.47;;;-1.84;100.00
31285;BME280;56605;51.516;6.742;2023-01-29T04:51:06;102776.69;;;-1.87;100.00
31285;BME280;56605;51.516;6.742;2023-01-29T04:53:48;102770.63;;;-1.89;100.00
31285;BME280;56605;51.516;6.742;2023-01-29T04:56:39;102767.19;;;-1.91;100.00
31285;BME280;56605;51.516;6.742;2023-01-29T04:59:08;102760.28;;;-1.95;100.00
31285;BME280;56605;51.516;6.742;2023-01-29T05:01:36;102766.44;;;-1.96;100.00
31285;BME280;56605;51.516;6.742;2023-01-29T05:04:08;102756.88;;;-1.97;100.00
31285;BME280;56605;51.516;6.742;2023-01-29T05:06:35;102757.75;;;-1.98;100.00
31285;BME280;56605;51.516;6.742;2023-01-29T05:09:02;102749.00;;;-1.97;100.00
31285;BME280;56605;51.516;6.742;2023-01-29T05:11:29;102747.25;;;-1.98;100.00
31285;BME280;56605;51.516;6.742;2023-01-29T05:13:57;102741.19;;;-1.99;100.00
31285;BME280;56605;51.516;6.742;2023-01-29T05:16:27;102749.03;;;-1.99;100.00
31285;BME280;56605;51.516;6.742;2023-01-29T05:18:54;102746.44;;;-1.99;100.00
31285;BME280;56605;51.516;6.742;2023-01-29T05:21:19;102742.00;;;-1.97;100.00
31285;BME280;56605;51.516;6.742;2023-01-29T05:24:05;102734.25;;;-2.00;100.00
31285;BME280;56605;51.516;6.742;2023-01-29T05:26:30;102734.91;;;-1.92;100.00
31285;BME280;56605;51.516;6.742;2023-01-29T05:29:14;102727.00;;;-1.90;100.00
31285;BME280;56605;51.516;6.742;2023-01-29T05:31:43;102726.09;;;-1.89;100.00
31285;BME280;56605;51.516;6.742;2023-01-29T05:34:09;102708.63;;;-1.87;100.00
31285;BME280;56605;51.516;6.742;2023-01-29T05:36:34;102717.22;;;-1.82;100.00
31285;BME280;56605;51.516;6.742;2023-01-29T05:39:00;102719.72;;;-1.77;100.00
31285;BME280;56605;51.516;6.742;2023-01-29T05:41:25;102717.97;;;-1.76;100.00
31285;BME280;56605;51.516;6.742;2023-01-29T05:43:50;102725.81;;;-1.76;100.00
31285;BME280;56605;51.516;6.742;2023-01-29T05:46:16;102737.09;;;-1.74;100.00
31285;BME280;56605;51.516;6.742;2023-01-29T05:48:41;102730.22;;;-1.79;100.00
31285;BME280;56605;51.516;6.742;2023-01-29T05:51:06;102732.13;;;-1.84;100.00
31285;BME280;56605;51.516;6.742;2023-01-29T05:53:32;102744.25;;;-1.81;100.00
31285;BME280;56605;51.516;6.742;2023-01-29T05:56:00;102738.22;;;-1.85;100.00
31285;BME280;56605;51.516;6.742;2023-01-29T05:58:25;102747.00;;;-1.86;100.00
31285;BME280;56605;51.516;6.742;2023-01-29T06:00:51;102746.13;;;-1.86;100.00
31285;BME280;56605;51.516;6.742;2023-01-29T06:03:16;102754.88;;;-1.87;100.00
31285;BME280;56605;51.516;6.742;2023-01-29T06:05:41;102756.56;;;-1.85;100.00
31285;BME280;56605;51.516;6.742;2023-01-29T06:08:07;102766.22;;;-1.87;100.00
31285;BME280;56605;51.516;6.742;2023-01-29T06:10:33;102766.16;;;-1.84;100.00
31285;BME280;56605;51.516;6.742;2023-01-29T06:12:58;102780.94;;;-1.81;100.00
31285;BME280;56605;51.516;6.742;2023-01-29T06:15:24;102768.75;;;-1.82;100.00
31285;BME280;56605;51.516;6.742;2023-01-29T06:17:52;102761.56;;;-1.74;100.00
31285;BME280;56605;51.516;6.742;2023-01-29T06:20:18;102744.91;;;-1.71;100.00
31285;BME280;56605;51.516;6.742;2023-01-29T06:22:43;102742.03;;;-1.60;100.00
31285;BME280;56605;51.516;6.742;2023-01-29T06:25:09;102762.03;;;-1.58;100.00
31285;BME280;56605;51.516;6.742;2023-01-29T06:27:34;102761.75;;;-1.45;100.00
31285;BME280;56605;51.516;6.742;2023-01-29T06:29:59;102753.84;;;-1.44;100.00
31285;BME280;56605;51.516;6.742;2023-01-29T06:32:24;102750.34;;;-1.44;100.00
31285;BME280;56605;51.516;6.742;2023-01-29T06:34:50;102759.00;;;-1.42;100.00
31285;BME280;56605;51.516;6.742;2023-01-29T06:37:17;102751.13;;;-1.41;100.00
31285;BME280;56605;51.516;6.742;2023-01-29T06:39:42;102746.75;;;-1.40;100.00
31285;BME280;56605;51.516;6.742;2023-01-29T06:42:08;102745.03;;;-1.41;100.00
31285;BME280;56605;51.516;6.742;2023-01-29T06:44:34;102751.03;;;-1.37;100.00
31285;BME280;56605;51.516;6.742;2023-01-29T06:46:59;102744.97;;;-1.38;100.00
31285;BME280;56605;51.516;6.742;2023-01-29T06:49:24;102742.44;;;-1.43;100.00
31285;BME280;56605;51.516;6.742;2023-01-29T06:51:50;102749.28;;;-1.37;100.00
31285;BME280;56605;51.516;6.742;2023-01-29T06:54:16;102751.84;;;-1.34;100.00
31285;BME280;56605;51.516;6.742;2023-01-29T06:56:41;102750.00;;;-1.32;100.00
31285;BME280;56605;51.516;6.742;2023-01-29T06:59:07;102746.50;;;-1.31;100.00
31285;BME280;56605;51.516;6.742;2023-01-29T07:01:32;102750.88;;;-1.31;100.00
31285;BME280;56605;51.516;6.742;2023-01-29T07:03:57;102746.59;;;-1.34;100.00
31285;BME280;56605;51.516;6.742;2023-01-29T07:06:27;102740.53;;;-1.36;100.00
31285;BME280;56605;51.516;6.742;2023-01-29T07:08:53;102752.94;;;-1.43;100.00
31285;BME280;56605;51.516;6.742;2023-01-29T07:11:18;102751.13;;;-1.41;100.00
31285;BME280;56605;51.516;6.742;2023-01-29T07:13:43;102762.56;;;-1.45;100.00
31285;BME280;56605;51.516;6.742;2023-01-29T07:16:08;102756.38;;;-1.42;100.00
31285;BME280;56605;51.516;6.742;2023-01-29T07:18:34;102754.72;;;-1.45;100.00
31285;BME280;56605;51.516;6.742;2023-01-29T07:21:03;102755.69;;;-1.49;100.00
31285;BME280;56605;51.516;6.742;2023-01-29T07:23:29;102747.81;;;-1.47;100.00
31285;BME280;56605;51.516;6.742;2023-01-29T07:25:54;102738.91;;;-1.42;100.00
31285;BME280;56605;51.516;6.742;2023-01-29T07:28:20;102737.22;;;-1.43;100.00
31285;BME280;56605;51.516;6.742;2023-01-29T07:30:45;102745.00;;;-1.39;100.00
31285;BME280;56605;51.516;6.742;2023-01-29T07:33:11;102752.84;;;-1.39;100.00
31285;BME280;56605;51.516;6.742;2023-01-29T07:35:38;102758.97;;;-1.41;100.00
31285;BME280;56605;51.516;6.742;2023-01-29T07:38:05;102764.06;;;-1.34;100.00
31285;BME280;56605;51.516;6.742;2023-01-29T07:40:30;102755.25;;;-1.32;100.00
31285;BME280;56605;51.516;6.742;2023-01-29T07:43:00;102743.91;;;-1.31;100.00
31285;BME280;56605;51.516;6.742;2023-01-29T07:45:26;102747.34;;;-1.30;100.00
31285;BME280;56605;51.516;6.742;2023-01-29T07:47:53;102734.22;;;-1.29;100.00
31285;BME280;56605;51.516;6.742;2023-01-29T07:50:19;102741.44;;;-1.37;100.00
31285;BME280;56605;51.516;6.742;2023-01-29T07:52:44;102740.97;;;-1.53;100.00
31285;BME280;56605;51.516;6.742;2023-01-29T07:55:10;102739.53;;;-1.67;100.00
31285;BME280;56605;51.516;6.742;2023-01-29T07:57:35;102751.84;;;-1.70;100.00
31285;BME280;56605;51.516;6.742;2023-01-29T08:00:01;102731.72;;;-1.68;100.00
31285;BME280;56605;51.516;6.742;2023-01-29T08:02:26;102733.38;;;-1.64;100.00
31285;BME280;56605;51.516;6.742;2023-01-29T08:04:52;102737.63;;;-1.60;100.00
31285;BME280;56605;51.516;6.742;2023-01-29T08:07:17;102743.78;;;-1.61;100.00
31285;BME280;56605;51.516;6.742;2023-01-29T08:09:42;102742.13;;;-1.65;100.00
31285;BME280;56605;51.516;6.742;2023-01-29T08:12:07;102749.13;;;-1.66;100.00
31285;BME280;56605;51.516;6.742;2023-01-29T08:14:33;102741.16;;;-1.61;100.00
31285;BME280;56605;51.516;6.742;2023-01-29T08:16:58;102743.63;;;-1.55;100.00
31285;BME280;56605;51.516;6.742;2023-01-29T08:19:23;102748.63;;;-1.45;100.00
31285;BME280;56605;51.516;6.742;2023-01-29T08:21:48;102734.50;;;-1.39;100.00
31285;BME280;56605;51.516;6.742;2023-01-29T08:24:14;102717.41;;;-1.55;100.00
31285;BME280;56605;51.516;6.742;2023-01-29T08:26:39;102715.53;;;-1.49;100.00
31285;BME280;56605;51.516;6.742;2023-01-29T08:29:04;102712.59;;;-1.37;100.00
31285;BME280;56605;51.516;6.742;2023-01-29T08:31:30;102706.13;;;-1.23;100.00
31285;BME280;56605;51.516;6.742;2023-01-29T08:33:55;102712.13;;;-1.20;100.00
31285;BME280;56605;51.516;6.742;2023-01-29T08:36:21;102704.16;;;-1.15;100.00
31285;BME280;56605;51.516;6.742;2023-01-29T08:38:46;102724.22;;;-1.14;100.00
31285;BME280;56605;51.516;6.742;2023-01-29T08:41:12;102721.66;;;-1.16;100.00
31285;BME280;56605;51.516;6.742;2023-01-29T08:43:37;102710.19;;;-1.11;100.00
31285;BME280;56605;51.516;6.742;2023-01-29T08:46:06;102703.16;;;-1.11;100.00
31285;BME280;56605;51.516;6.742;2023-01-29T08:48:31;102702.28;;;-1.10;100.00
31285;BME280;56605;51.516;6.742;2023-01-29T08:50:58;102699.94;;;-1.21;100.00
31285;BME280;56605;51.516;6.742;2023-01-29T08:53:24;102697.25;;;-1.18;100.00
31285;BME280;56605;51.516;6.742;2023-01-29T08:55:50;102685.69;;;-1.10;100.00
31285;BME280;56605;51.516;6.742;2023-01-29T08:58:15;102696.25;;;-1.13;100.00
31285;BME280;56605;51.516;6.742;2023-01-29T09:00:41;102697.16;;;-1.15;100.00
31285;BME280;56605;51.516;6.742;2023-01-29T09:03:06;102697.75;;;-1.05;100.00
31285;BME280;56605;51.516;6.742;2023-01-29T09:05:33;102699.28;;;-0.97;100.00
31285;BME280;56605;51.516;6.742;2023-01-29T09:07:59;102691.44;;;-0.97;100.00
31285;BME280;56605;51.516;6.742;2023-01-29T09:10:24;102690.59;;;-0.98;100.00
31285;BME280;56605;51.516;6.742;2023-01-29T09:12:49;102685.47;;;-1.03;100.00
31285;BME280;56605;51.516;6.742;2023-01-29T09:15:15;102681.69;;;-0.92;100.00
31285;BME280;56605;51.516;6.742;2023-01-29T09:17:40;102687.81;;;-0.93;100.00
31285;BME280;56605;51.516;6.742;2023-01-29T09:20:06;102684.41;;;-0.95;100.00
31285;BME280;56605;51.516;6.742;2023-01-29T09:22:32;102679.22;;;-0.98;100.00
31285;BME280;56605;51.516;6.742;2023-01-29T09:24:57;102673.00;;;-0.94;100.00
31285;BME280;56605;51.516;6.742;2023-01-29T09:27:23;102668.66;;;-0.95;100.00
31285;BME280;56605;51.516;6.742;2023-01-29T09:29:49;102670.44;;;-0.97;100.00
31285;BME280;56605;51.516;6.742;2023-01-29T09:32:14;102672.06;;;-0.93;100.00
31285;BME280;56605;51.516;6.742;2023-01-29T09:34:39;102671.50;;;-1.03;100.00
31285;BME280;56605;51.516;6.742;2023-01-29T09:37:04;102665.22;;;-0.97;100.00
31285;BME280;56605;51.516;6.742;2023-01-29T09:39:30;102669.75;;;-1.03;100.00
31285;BME280;56605;51.516;6.742;2023-01-29T09:42:17;102665.34;;;-1.02;100.00
31285;BME280;56605;51.516;6.742;2023-01-29T09:44:54;102662.75;;;-1.04;100.00
31285;BME280;56605;51.516;6.742;2023-01-29T09:47:24;102662.59;;;-0.97;100.00
31285;BME280;56605;51.516;6.742;2023-01-29T09:50:06;102664.13;;;-0.90;100.00
31285;BME280;56605;51.516;6.742;2023-01-29T09:52:42;102658.53;;;-0.78;100.00
31285;BME280;56605;51.516;6.742;2023-01-29T09:55:30;102662.81;;;-0.75;100.00
31285;BME280;56605;51.516;6.742;2023-01-29T09:58:11;102673.41;;;-0.78;100.00
31285;BME280;56605;51.516;6.742;2023-01-29T10:00:50;102671.91;;;-0.87;100.00
31285;BME280;56605;51.516;6.742;2023-01-29T10:03:49;102663.25;;;-0.89;100.00
31285;BME280;56605;51.516;6.742;2023-01-29T10:06:35;102670.50;;;-0.99;100.00
31285;BME280;56605;51.516;6.742;2023-01-29T10:09:22;102677.09;;;-0.85;100.00
31285;BME280;56605;51.516;6.742;2023-01-29T10:25:39;102671.50;;;-0.73;100.00
31285;BME280;56605;51.516;6.742;2023-01-29T10:28:19;102672.25;;;-0.69;100.00
31285;BME280;56605;51.516;6.742;2023-01-29T10:30:49;102670.38;;;-0.64;100.00
31285;BME280;56605;51.516;6.742;2023-01-29T10:33:18;102669.41;;;-0.61;100.00
31285;BME280;56605;51.516;6.742;2023-01-29T10:35:50;102649.56;;;-0.70;100.00
31285;BME280;56605;51.516;6.742;2023-01-29T10:38:30;102655.44;;;-0.62;100.00
31285;BME280;56605;51.516;6.742;2023-01-29T10:41:11;102650.00;;;-0.56;100.00
31285;BME280;56605;51.516;6.742;2023-01-29T10:50:02;102636.41;;;-0.40;100.00
31285;BME280;56605;51.516;6.742;2023-01-29T10:55:06;102627.13;;;-0.23;100.00
31285;BME280;56605;51.516;6.742;2023-01-29T11:00:27;102618.13;;;-0.16;100.00
31285;BME280;56605;51.516;6.742;2023-01-29T11:02:54;102624.38;;;-0.20;100.00
31285;BME280;56605;51.516;6.742;2023-01-29T11:05:25;102620.59;;;-0.11;100.00
31285;BME280;56605;51.516;6.742;2023-01-29T11:08:06;102609.25;;;-0.12;100.00
31285;BME280;56605;51.516;6.742;2023-01-29T11:10:39;102607.81;;;-0.21;100.00
31285;BME280;56605;51.516;6.742;2023-01-29T11:13:09;102606.69;;;-0.14;100.00
31285;BME280;56605;51.516;6.742;2023-01-29T11:15:37;102599.44;;;-0.07;100.00
31285;BME280;56605;51.516;6.742;2023-01-29T11:18:06;102590.22;;;-0.19;100.00
31285;BME280;56605;51.516;6.742;2023-01-29T11:20:34;102588.59;;;-0.23;100.00
31285;BME280;56605;51.516;6.742;2023-01-29T11:23:00;102589.19;;;-0.15;100.00
31285;BME280;56605;51.516;6.742;2023-01-29T11:25:25;102588.56;;;-0.21;100.00
31285;BME280;56605;51.516;6.742;2023-01-29T11:27:57;102585.63;;;-0.12;100.00
31285;BME280;56605;51.516;6.742;2023-01-29T11:30:29;102569.84;;;-0.10;100.00
31285;BME280;56605;51.516;6.742;2023-01-29T11:35:32;102567.56;;;-0.21;100.00
31285;BME280;56605;51.516;6.742;2023-01-29T11:38:26;102555.53;;;-0.02;100.00
31285;BME280;56605;51.516;6.742;2023-01-29T11:41:04;102558.41;;;-0.09;100.00
31285;BME280;56605;51.516;6.742;2023-01-29T11:43:31;102565.31;;;-0.07;100.00
31285;BME280;56605;51.516;6.742;2023-01-29T11:46:03;102553.94;;;-0.07;100.00
31285;BME280;56605;51.516;6.742;2023-01-29T11:48:38;102553.47;;;-0.19;100.00
31285;BME280;56605;51.516;6.742;2023-01-29T11:51:05;102552.06;;;-0.04;100.00
31285;BME280;56605;51.516;6.742;2023-01-29T11:53:39;102550.31;;;-0.03;100.00
31285;BME280;56605;51.516;6.742;2023-01-29T11:56:17;102548.38;;;0.02;100.00
31285;BME280;56605;51.516;6.742;2023-01-29T11:58:44;102538.03;;;-0.03;100.00
31285;BME280;56605;51.516;6.742;2023-01-29T12:01:10;102529.84;;;0.07;100.00
31285;BME280;56605;51.516;6.742;2023-01-29T12:03:42;102516.19;;;-0.03;100.00
31285;BME280;56605;51.516;6.742;2023-01-29T12:06:23;102519.66;;;-0.03;100.00
31285;BME280;56605;51.516;6.742;2023-01-29T12:08:58;102511.78;;;-0.03;100.00
31285;BME280;56605;51.516;6.742;2023-01-29T12:11:29;102508.41;;;-0.06;100.00
31285;BME280;56605;51.516;6.742;2023-01-29T12:13:56;102497.03;;;-0.07;100.00
31285;BME280;56605;51.516;6.742;2023-01-29T12:16:27;102495.63;;;0.08;100.00
31285;BME280;56605;51.516;6.742;2023-01-29T12:19:17;102465.25;;;0.01;100.00
31285;BME280;56605;51.516;6.742;2023-01-29T12:21:56;102465.56;;;0.17;100.00
31285;BME280;56605;51.516;6.742;2023-01-29T12:24:48;102455.00;;;0.19;100.00
31285;BME280;56605;51.516;6.742;2023-01-29T12:27:22;102445.41;;;0.18;100.00
31285;BME280;56605;51.516;6.742;2023-01-29T12:30:29;102447.38;;;0.35;100.00
31285;BME280;56605;51.516;6.742;2023-01-29T12:33:13;102442.94;;;0.37;100.00
31285;BME280;56605;51.516;6.742;2023-01-29T12:36:01;102431.78;;;0.30;100.00
31285;BME280;56605;51.516;6.742;2023-01-29T12:38:29;102434.47;;;0.29;100.00
31285;BME280;56605;51.516;6.742;2023-01-29T12:41:40;102425.75;;;0.28;100.00
31285;BME280;56605;51.516;6.742;2023-01-29T12:44:10;102419.28;;;0.37;100.00
31285;BME280;56605;51.516;6.742;2023-01-29T12:46:41;102415.41;;;0.23;100.00
31285;BME280;56605;51.516;6.742;2023-01-29T12:49:22;102414.56;;;0.23;100.00
31285;BME280;56605;51.516;6.742;2023-01-29T12:52:11;102409.63;;;0.37;100.00
31285;BME280;56605;51.516;6.742;2023-01-29T12:54:47;102389.47;;;0.38;100.00
31285;BME280;56605;51.516;6.742;2023-01-29T12:57:20;102394.53;;;0.43;100.00
31285;BME280;56605;51.516;6.742;2023-01-29T13:00:15;102395.84;;;0.55;100.00
31285;BME280;56605;51.516;6.742;2023-01-29T13:06:00;102399.91;;;0.40;100.00
31285;BME280;56605;51.516;6.742;2023-01-29T13:08:37;102394.53;;;0.43;100.00
31285;BME280;56605;51.516;6.742;2023-01-29T13:11:08;102388.59;;;0.37;100.00
31285;BME280;56605;51.516;6.742;2023-01-29T13:13:43;102391.84;;;0.44;100.00
31285;BME280;56605;51.516;6.742;2023-01-29T13:16:19;102380.13;;;0.53;100.00
31285;BME280;56605;51.516;6.742;2023-01-29T13:19:12;102379.38;;;0.49;100.00
31285;BME280;56605;51.516;6.742;2023-01-29T13:21:40;102376.63;;;0.53;100.00
31285;BME280;56605;51.516;6.742;2023-01-29T13:24:14;102381.03;;;0.52;100.00
31285;BME280;56605;51.516;6.742;2023-01-29T13:26:47;102378.16;;;0.58;100.00
31285;BME280;56605;51.516;6.742;2023-01-29T13:29:24;102372.31;;;0.52;100.00
31285;BME280;56605;51.516;6.742;2023-01-29T13:31:53;102377.38;;;0.56;100.00
31285;BME280;56605;51.516;6.742;2023-01-29T13:34:34;102383.88;;;0.68;100.00
31285;BME280;56605;51.516;6.742;2023-01-29T13:37:10;102370.69;;;0.70;100.00
31285;BME280;56605;51.516;6.742;2023-01-29T13:39:39;102373.59;;;0.63;100.00
31285;BME280;56605;51.516;6.742;2023-01-29T13:42:20;102376.94;;;0.67;100.00
31285;BME280;56605;51.516;6.742;2023-01-29T13:44:50;102379.25;;;0.75;100.00
31285;BME280;56605;51.516;6.742;2023-01-29T13:47:23;102374.19;;;0.70;100.00
31285;BME280;56605;51.516;6.742;2023-01-29T13:49:58;102367.81;;;0.76;100.00
31285;BME280;56605;51.516;6.742;2023-01-29T13:52:34;102365.38;;;0.71;100.00
31285;BME280;56605;51.516;6.742;2023-01-29T13:55:20;102367.09;;;0.72;100.00
31285;BME280;56605;51.516;6.742;2023-01-29T13:57:51;102365.91;;;0.80;100.00
31285;BME280;56605;51.516;6.742;2023-01-29T14:05:43;102360.66;;;0.80;100.00
31285;BME280;56605;51.516;6.742;2023-01-29T14:10:35;102348.47;;;0.77;100.00
31285;BME280;56605;51.516;6.742;2023-01-29T14:18:27;102330.16;;;0.75;100.00
31285;BME280;56605;51.516;6.742;2023-01-29T14:20:59;102333.94;;;0.68;100.00
31285;BME280;56605;51.516;6.742;2023-01-29T14:29:04;102332.06;;;0.72;100.00
31285;BME280;56605;51.516;6.742;2023-01-29T14:31:41;102339.56;;;0.81;100.00
31285;BME280;56605;51.516;6.742;2023-01-29T14:34:22;102327.38;;;0.79;100.00